Time;durP1;ratioP1;P1;durP2;ratioP2;P2;SDS_P1;SDS_P2;PMS_P1;PMS_P2;Temp;Humidity;BMP_temperature;BMP_pressure;BME280_temperature;BME280_humidity;BME280_pressure;Samples;Min_cycle;Max_cycle;Signal;HPM_P1;HPM_P2
2023/08/10 00:01:30;;;;;;;4.55;2.70;;;;;;;14.41;98.14;101904.75;5042087;28;20264;-73
2023/08/10 00:03:55;;;;;;;4.03;3.17;;;;;;;14.41;97.63;101901.19;5045565;28;20053;-73
2023/08/10 00:06:21;;;;;;;5.25;2.85;;;;;;;14.39;97.05;101895.94;5052157;28;20378;-75
2023/08/10 00:08:47;;;;;;;5.03;3.30;;;;;;;14.44;97.68;101893.00;5040173;28;20237;-74
2023/08/10 00:11:12;;;;;;;6.78;3.83;;;;;;;14.44;98.43;101899.25;5034809;28;20084;-74
2023/08/10 00:13:41;;;;;;;5.78;3.72;;;;;;;14.40;99.26;101900.34;5030578;28;20242;-74
2023/08/10 00:16:07;;;;;;;4.20;3.28;;;;;;;14.49;98.10;101909.75;5033593;28;20035;-75
2023/08/10 00:18:32;;;;;;;4.70;3.67;;;;;;;14.49;98.07;101904.41;5047879;28;20021;-74
2023/08/10 00:20:57;;;;;;;5.25;3.70;;;;;;;14.47;98.52;101908.09;5046621;28;20120;-75
2023/08/10 00:23:23;;;;;;;5.40;3.63;;;;;;;14.43;98.31;101913.59;5053525;28;20393;-73
2023/08/10 00:25:48;;;;;;;5.45;4.15;;;;;;;14.43;99.14;101913.59;5041263;28;20029;-74
2023/08/10 00:28:15;;;;;;;4.10;3.45;;;;;;;14.37;99.45;101905.84;5036665;28;20361;-74
2023/08/10 00:30:41;;;;;;;5.40;3.58;;;;;;;14.38;99.55;101915.63;5042966;28;20039;-75
2023/08/10 00:33:06;;;;;;;8.30;6.50;;;;;;;14.40;99.75;101913.72;5042215;28;20096;-74
2023/08/10 00:35:32;;;;;;;7.20;3.83;;;;;;;14.41;98.92;101915.47;5039849;28;20676;-74
2023/08/10 00:37:58;;;;;;;7.82;3.95;;;;;;;14.42;99.34;101919.91;5027247;28;20450;-74
2023/08/10 00:40:23;;;;;;;7.53;3.90;;;;;;;14.49;99.70;101923.16;5023742;28;20484;-75
2023/08/10 00:42:49;;;;;;;6.45;3.53;;;;;;;14.43;99.20;101920.75;5031428;28;20040;-74
2023/08/10 00:45:14;;;;;;;6.35;3.70;;;;;;;14.39;99.63;101917.34;5034570;28;20036;-73
2023/08/10 00:47:40;;;;;;;5.65;3.85;;;;;;;14.44;99.76;101911.78;5060195;28;20025;-73
2023/08/10 00:50:07;;;;;;;6.32;3.80;;;;;;;14.46;99.12;101909.88;5043349;28;20135;-74
2023/08/10 00:52:33;;;;;;;6.18;4.03;;;;;;;14.48;99.60;101913.34;5042941;28;20025;-74
2023/08/10 00:55:00;;;;;;;6.28;3.50;;;;;;;14.47;100.00;101900.03;5038329;28;20081;-73
2023/08/10 00:57:25;;;;;;;4.75;3.42;;;;;;;14.50;100.00;101900.75;5053236;28;20040;-73
2023/08/10 00:59:51;;;;;;;5.05;3.47;;;;;;;14.48;99.75;101896.41;5048819;28;20028;-73
2023/08/10 01:02:17;;;;;;;5.25;3.50;;;;;;;14.54;100.00;101901.47;5060212;28;20316;-73
2023/08/10 01:04:42;;;;;;;6.63;3.90;;;;;;;14.50;100.00;101905.25;5054904;28;20069;-73
2023/08/10 01:07:45;;;;;;;5.05;3.65;;;;;;;14.55;100.00;101906.78;5035627;28;20459;-74
2023/08/10 01:10:24;;;;;;;5.13;4.10;;;;;;;14.53;100.00;101910.47;5049580;28;20063;-73
2023/08/10 01:13:22;;;;;;;5.25;3.55;;;;;;;14.54;100.00;101914.88;5044655;28;20026;-74
2023/08/10 01:16:03;;;;;;;6.97;4.18;;;;;;;14.52;100.00;101914.09;5049623;28;20051;-73
2023/08/10 01:18:30;;;;;;;6.55;4.65;;;;;;;14.44;100.00;101909.09;5043096;28;20525;-74
2023/08/10 01:20:58;;;;;;;5.45;3.63;;;;;;;14.39;100.00;101905.78;5040306;28;20028;-73
2023/08/10 01:23:23;;;;;;;8.02;4.05;;;;;;;14.48;100.00;101908.00;5047688;28;20020;-74
2023/08/10 01:25:52;;;;;;;7.78;4.78;;;;;;;14.42;100.00;101910.97;5038123;28;20028;-74
2023/08/10 01:28:17;;;;;;;6.07;3.42;;;;;;;14.41;100.00;101909.22;5061444;28;20020;-73
2023/08/10 01:30:44;;;;;;;5.00;3.83;;;;;;;14.34;100.00;101915.88;5055041;28;20040;-73
2023/08/10 01:33:13;;;;;;;6.32;3.90;;;;;;;14.36;100.00;101914.81;5045130;28;20030;-74
2023/08/10 01:35:39;;;;;;;6.18;3.72;;;;;;;14.32;100.00;101912.38;5045861;28;20033;-74
2023/08/10 01:38:05;;;;;;;5.05;3.80;;;;;;;14.31;100.00;101913.31;5036972;28;20136;-74
2023/08/10 01:40:31;;;;;;;6.10;4.03;;;;;;;14.31;100.00;101913.31;5047615;28;20033;-74
2023/08/10 01:42:56;;;;;;;5.07;4.03;;;;;;;14.33;100.00;101917.66;5045679;28;20040;-74
2023/08/10 01:45:22;;;;;;;5.65;4.03;;;;;;;14.33;100.00;101916.78;5058995;28;20502;-74
2023/08/10 01:47:57;;;;;;;6.00;4.00;;;;;;;14.31;100.00;101921.38;5049816;28;20519;-74
2023/08/10 01:50:26;;;;;;;6.15;3.88;;;;;;;14.25;100.00;101922.50;5054546;28;20055;-74
2023/08/10 01:52:57;;;;;;;6.25;4.03;;;;;;;14.11;100.00;101925.00;5041324;28;20050;-74
2023/08/10 01:55:23;;;;;;;5.25;4.10;;;;;;;13.99;100.00;101913.06;5052767;28;20039;-74
2023/08/10 01:57:49;;;;;;;3.80;3.38;;;;;;;13.94;100.00;101918.66;5042924;28;20037;-74
2023/08/10 02:00:16;;;;;;;5.60;3.85;;;;;;;13.91;100.00;101918.78;5057587;28;20032;-74
2023/08/10 02:02:41;;;;;;;7.30;4.00;;;;;;;13.89;100.00;101918.00;5059381;28;20148;-73
2023/08/10 02:05:07;;;;;;;5.25;3.75;;;;;;;13.77;100.00;101917.72;5035821;28;20538;-74
2023/08/10 02:07:32;;;;;;;4.30;3.35;;;;;;;13.65;100.00;101920.03;5047560;28;20229;-73
2023/08/10 02:09:59;;;;;;;6.00;3.38;;;;;;;13.55;100.00;101921.41;5040041;28;20020;-73
2023/08/10 02:12:24;;;;;;;6.47;3.60;;;;;;;13.50;100.00;101922.53;5052905;28;20028;-73
2023/08/10 02:14:50;;;;;;;6.13;3.50;;;;;;;13.41;100.00;101927.38;5041889;28;20181;-73
2023/08/10 02:17:16;;;;;;;5.72;3.95;;;;;;;13.29;100.00;101925.25;5045249;28;20270;-73
2023/08/10 02:19:41;;;;;;;5.90;3.75;;;;;;;13.27;100.00;101931.63;5049277;28;20024;-74
2023/08/10 02:22:07;;;;;;;8.02;4.00;;;;;;;13.18;100.00;101930.19;5045642;28;20029;-74
2023/08/10 02:24:32;;;;;;;5.50;3.80;;;;;;;13.12;100.00;101923.28;5046911;28;20036;-73
2023/08/10 02:26:57;;;;;;;4.93;4.15;;;;;;;13.13;100.00;101919.72;5047133;28;20102;-73
2023/08/10 02:29:23;;;;;;;7.47;4.00;;;;;;;13.07;100.00;101921.78;5046049;28;20064;-74
2023/08/10 02:31:48;;;;;;;5.47;3.78;;;;;;;13.07;100.00;101916.44;5052505;28;20613;-73
2023/08/10 02:34:14;;;;;;;5.28;3.78;;;;;;;13.04;100.00;101924.56;5048567;28;20033;-73
2023/08/10 02:36:39;;;;;;;5.30;4.00;;;;;;;12.93;100.00;101920.56;5045945;28;20021;-73
2023/08/10 02:39:05;;;;;;;6.10;4.35;;;;;;;12.83;100.00;101918.34;5045343;28;20025;-74
2023/08/10 02:41:31;;;;;;;5.70;4.10;;;;;;;12.87;100.00;101920.81;5046626;28;20395;-73
2023/08/10 02:43:57;;;;;;;8.45;4.60;;;;;;;12.84;100.00;101920.97;5036047;28;20466;-74
2023/08/10 02:46:22;;;;;;;5.90;4.00;;;;;;;12.77;100.00;101923.97;5048461;28;20025;-74
2023/08/10 02:48:47;;;;;;;5.97;4.45;;;;;;;12.75;100.00;101934.75;5032121;28;20120;-73
2023/08/10 02:51:13;;;;;;;7.38;4.30;;;;;;;12.74;100.00;101932.97;5052468;28;20055;-73
2023/08/10 02:53:38;;;;;;;5.70;3.92;;;;;;;12.82;100.00;101928.19;5059107;28;20476;-73
2023/08/10 02:56:03;;;;;;;5.03;3.70;;;;;;;12.81;100.00;101931.78;5043153;28;20279;-73
2023/08/10 02:58:29;;;;;;;6.10;4.30;;;;;;;12.82;100.00;101929.97;5041418;28;20060;-73
2023/08/10 03:00:55;;;;;;;5.18;3.97;;;;;;;12.73;100.00;101927.72;5039519;28;20317;-73
2023/08/10 03:03:21;;;;;;;6.20;3.97;;;;;;;12.73;100.00;101936.59;5040200;28;20526;-72
2023/08/10 03:05:46;;;;;;;6.93;4.38;;;;;;;12.69;100.00;101932.31;5046620;28;20029;-72
2023/08/10 03:08:12;;;;;;;6.00;4.20;;;;;;;12.57;100.00;101936.34;5036448;28;20549;-73
2023/08/10 03:10:37;;;;;;;4.70;4.15;;;;;;;12.55;100.00;101940.03;5043035;28;20035;-73
2023/08/10 03:13:04;;;;;;;6.47;4.35;;;;;;;12.54;100.00;101931.16;5048073;28;20025;-73
2023/08/10 03:15:30;;;;;;;5.70;4.32;;;;;;;12.51;100.00;101933.97;5043218;28;20555;-73
2023/08/10 03:17:55;;;;;;;7.40;4.40;;;;;;;12.50;100.00;101934.00;5045137;28;20061;-73
2023/08/10 03:20:21;;;;;;;7.97;4.57;;;;;;;12.49;100.00;101940.28;5041738;28;20028;-73
2023/08/10 03:22:47;;;;;;;4.90;4.18;;;;;;;12.45;100.00;101945.75;5044549;28;20035;-73
2023/08/10 03:25:14;;;;;;;10.60;4.60;;;;;;;12.44;100.00;101949.34;5043747;28;20506;-73
2023/08/10 03:27:39;;;;;;;4.95;3.70;;;;;;;12.47;100.00;101945.69;5045539;28;20522;-73
2023/08/10 03:30:06;;;;;;;6.85;4.53;;;;;;;12.42;100.00;101948.56;5051405;28;20044;-73
2023/08/10 03:32:31;;;;;;;5.80;4.18;;;;;;;12.49;100.00;101945.63;5045930;28;20028;-73
2023/08/10 03:34:56;;;;;;;7.03;4.35;;;;;;;12.52;100.00;101945.50;5042954;28;20031;-72
2023/08/10 03:37:22;;;;;;;4.70;3.90;;;;;;;12.58;100.00;101935.44;5051821;28;20135;-73
2023/08/10 03:39:47;;;;;;;4.70;4.03;;;;;;;12.53;100.00;101932.06;5043704;28;20480;-73
2023/08/10 03:42:12;;;;;;;7.13;4.80;;;;;;;12.56;100.00;101936.44;5043484;28;20020;-73
2023/08/10 03:44:38;;;;;;;4.53;4.10;;;;;;;12.54;100.00;101932.94;5054723;28;20039;-73
2023/08/10 03:47:04;;;;;;;6.88;4.40;;;;;;;12.55;100.00;101935.56;5046075;28;20056;-73
2023/08/10 03:49:29;;;;;;;6.20;4.57;;;;;;;12.55;100.00;101932.91;5033612;28;20535;-75
2023/08/10 03:51:55;;;;;;;6.75;4.70;;;;;;;12.55;100.00;101938.25;5024347;28;20048;-74
2023/08/10 03:54:21;;;;;;;8.52;4.93;;;;;;;12.54;100.00;101947.19;5040143;28;20537;-74
2023/08/10 03:56:47;;;;;;;7.00;4.63;;;;;;;12.51;100.00;101952.66;5037025;28;20025;-73
2023/08/10 03:59:12;;;;;;;7.47;4.85;;;;;;;12.44;100.00;101949.34;5048377;28;20021;-74
2023/08/10 04:01:38;;;;;;;6.05;4.10;;;;;;;12.40;100.00;101947.75;5064905;28;20491;-73
2023/08/10 04:04:03;;;;;;;6.40;4.45;;;;;;;12.40;100.00;101949.53;5048782;28;20036;-74
2023/08/10 04:06:29;;;;;;;5.50;4.03;;;;;;;12.30;100.00;101943.72;5041312;28;20031;-74
2023/08/10 04:08:55;;;;;;;8.32;4.05;;;;;;;12.22;100.00;101953.84;5065015;28;20050;-74
2023/08/10 04:11:21;;;;;;;4.05;3.65;;;;;;;12.21;100.00;101947.63;5047526;28;20028;-74
2023/08/10 04:13:46;;;;;;;6.05;3.88;;;;;;;12.24;100.00;101945.75;5044908;28;20341;-74
2023/08/10 04:16:12;;;;;;;4.32;3.70;;;;;;;12.14;100.00;101945.25;5052545;28;20112;-74
2023/08/10 04:18:38;;;;;;;6.70;4.18;;;;;;;12.12;100.00;101947.09;5048387;28;20063;-74
2023/08/10 04:21:03;;;;;;;7.38;5.05;;;;;;;12.18;100.00;101954.88;5041604;28;20434;-73
2023/08/10 04:23:28;;;;;;;6.63;4.40;;;;;;;12.14;100.00;101950.59;5040034;28;20056;-74
2023/08/10 04:25:54;;;;;;;8.40;5.00;;;;;;;12.12;100.00;101955.13;5045780;28;20070;-74
2023/08/10 04:28:19;;;;;;;7.00;4.78;;;;;;;12.09;100.00;101953.47;5034425;28;20365;-73
2023/08/10 04:30:45;;;;;;;5.78;4.28;;;;;;;12.09;100.00;101960.59;5045290;28;20526;-74
2023/08/10 04:33:10;;;;;;;5.38;4.70;;;;;;;12.09;100.00;101958.78;5060794;28;20457;-74
2023/08/10 04:35:36;;;;;;;7.68;4.35;;;;;;;12.10;100.00;101960.53;5053361;28;20509;-74
2023/08/10 04:38:01;;;;;;;5.75;4.72;;;;;;;12.14;100.00;101963.94;5042733;28;20825;-74
2023/08/10 04:40:27;;;;;;;7.35;4.80;;;;;;;12.15;100.00;101961.19;5033266;28;20025;-74
2023/08/10 04:42:52;;;;;;;5.60;4.55;;;;;;;12.23;100.00;101965.38;5038794;28;20087;-74
2023/08/10 04:45:17;;;;;;;7.93;5.00;;;;;;;12.27;100.00;101972.34;5036336;28;20033;-73
2023/08/10 04:47:43;;;;;;;7.80;4.95;;;;;;;12.28;100.00;101968.72;5035987;28;20023;-74
2023/08/10 04:50:09;;;;;;;6.90;5.30;;;;;;;12.27;100.00;101983.88;5038376;28;20053;-72
2023/08/10 04:52:35;;;;;;;7.40;4.70;;;;;;;12.23;100.00;101978.72;5039966;28;20502;-73
2023/08/10 04:55:00;;;;;;;6.43;4.88;;;;;;;12.20;100.00;101969.03;5052759;28;20029;-73
2023/08/10 04:57:26;;;;;;;8.60;4.75;;;;;;;12.27;100.00;101977.66;5048029;28;20086;-74
2023/08/10 04:59:52;;;;;;;5.25;4.65;;;;;;;12.25;100.00;101974.19;5062726;28;20024;-74
2023/08/10 05:02:17;;;;;;;6.72;4.97;;;;;;;12.27;100.00;101978.53;5029611;28;20033;-75
2023/08/10 05:04:44;;;;;;;9.55;5.68;;;;;;;12.22;100.00;101977.84;5040322;28;20036;-73
2023/08/10 05:07:10;;;;;;;7.85;5.13;;;;;;;12.29;100.00;101974.03;5048767;28;20020;-74
2023/08/10 05:09:35;;;;;;;8.57;5.05;;;;;;;12.26;100.00;101966.13;5046478;28;20489;-74
2023/08/10 05:12:01;;;;;;;9.25;5.32;;;;;;;12.28;100.00;101966.91;5045610;28;20597;-74
2023/08/10 05:14:26;;;;;;;6.32;5.05;;;;;;;12.34;100.00;101977.38;5036085;28;20443;-72
2023/08/10 05:16:51;;;;;;;7.15;5.90;;;;;;;12.41;100.00;101965.50;5028359;28;20025;-73
2023/08/10 05:19:17;;;;;;;8.57;6.28;;;;;;;12.49;100.00;101975.00;5029989;28;20496;-73
2023/08/10 05:21:42;;;;;;;6.72;5.90;;;;;;;12.53;100.00;101976.59;5037465;28;20460;-74
2023/08/10 05:24:07;;;;;;;9.30;6.53;;;;;;;12.53;100.00;101979.28;5050143;28;20022;-73
2023/08/10 05:26:33;;;;;;;9.50;6.60;;;;;;;12.60;100.00;101980.78;5039194;28;20040;-74
2023/08/10 05:28:58;;;;;;;7.80;6.53;;;;;;;12.63;100.00;101986.00;5042068;28;20033;-74
2023/08/10 05:31:24;;;;;;;8.57;6.97;;;;;;;12.72;100.00;101988.28;5031818;28;20464;-73
2023/08/10 05:33:49;;;;;;;8.05;6.93;;;;;;;12.81;100.00;101990.56;5040510;28;20575;-74
2023/08/10 05:36:15;;;;;;;7.65;6.95;;;;;;;12.90;100.00;101984.84;5039507;28;20087;-74
2023/08/10 05:38:40;;;;;;;11.57;7.35;;;;;;;12.96;100.00;101975.69;5044918;28;20399;-73
2023/08/10 05:41:05;;;;;;;9.45;6.70;;;;;;;13.16;100.00;101972.16;5034024;28;20507;-73
2023/08/10 05:43:31;;;;;;;9.48;6.57;;;;;;;13.33;100.00;101969.63;5048227;28;20103;-74
2023/08/10 05:45:56;;;;;;;9.95;6.95;;;;;;;13.42;100.00;101974.59;5031208;28;20449;-74
2023/08/10 05:48:22;;;;;;;8.57;7.32;;;;;;;13.52;100.00;101971.50;5043312;28;20063;-74
2023/08/10 05:50:48;;;;;;;11.80;7.65;;;;;;;13.55;100.00;101974.91;5056410;28;20468;-74
2023/08/10 05:53:14;;;;;;;8.65;7.75;;;;;;;13.67;100.00;101976.16;5044025;28;20029;-74
2023/08/10 05:55:39;;;;;;;11.05;7.40;;;;;;;13.87;100.00;101970.72;5044714;28;20282;-74
2023/08/10 05:58:05;;;;;;;10.57;7.15;;;;;;;14.10;100.00;101972.34;5048711;28;20460;-74
2023/08/10 06:00:31;;;;;;;9.18;7.35;;;;;;;14.31;100.00;101973.09;5046365;28;20059;-74
2023/08/10 06:02:56;;;;;;;9.57;7.63;;;;;;;14.52;100.00;101968.53;5057835;28;20053;-74
2023/08/10 06:05:22;;;;;;;9.07;6.93;;;;;;;14.70;100.00;101956.91;5043344;28;20029;-75
2023/08/10 06:07:48;;;;;;;10.63;7.07;;;;;;;14.86;100.00;101962.34;5049147;28;20025;-74
2023/08/10 06:10:18;;;;;;;7.38;6.50;;;;;;;14.94;100.00;101967.31;5050313;28;20036;-74
2023/08/10 06:12:44;;;;;;;8.63;7.10;;;;;;;15.14;100.00;101969.84;5041749;28;20017;-75
2023/08/10 06:15:10;;;;;;;9.63;6.80;;;;;;;15.37;100.00;101973.97;5047711;28;20032;-74
2023/08/10 06:17:37;;;;;;;6.57;5.97;;;;;;;15.60;100.00;101975.47;5046576;28;20394;-75
2023/08/10 06:20:09;;;;;;;6.80;6.10;;;;;;;15.67;100.00;101967.94;5054538;28;20548;-74
2023/08/10 06:22:36;;;;;;;7.70;5.68;;;;;;;15.96;100.00;101977.09;5038637;28;20409;-73
2023/08/10 06:25:01;;;;;;;8.85;6.28;;;;;;;16.09;99.06;101971.91;5044933;28;20381;-74
2023/08/10 06:27:26;;;;;;;7.95;5.90;;;;;;;16.34;97.79;101980.31;5053386;28;20096;-73
2023/08/10 06:29:52;;;;;;;10.10;6.15;;;;;;;16.36;98.54;101978.41;5048993;28;20489;-73
2023/08/10 06:32:18;;;;;;;6.72;5.32;;;;;;;16.54;95.66;101986.38;5032815;28;20058;-74
2023/08/10 06:34:43;;;;;;;7.05;4.30;;;;;;;16.68;95.85;101973.00;5043982;28;20082;-74
2023/08/10 06:37:10;;;;;;;6.50;4.85;;;;;;;16.93;95.55;101973.31;5052530;28;20032;-75
2023/08/10 06:39:35;;;;;;;7.35;4.70;;;;;;;17.18;94.69;101963.78;5041666;28;20025;-74
2023/08/10 06:42:02;;;;;;;7.00;4.60;;;;;;;17.28;92.22;101962.25;5040310;28;20479;-74
2023/08/10 06:44:29;;;;;;;9.38;4.97;;;;;;;17.42;92.78;101966.78;5048763;28;20025;-74
2023/08/10 06:46:54;;;;;;;5.57;3.90;;;;;;;17.57;91.68;101965.81;5060698;28;20031;-74
2023/08/10 06:49:21;;;;;;;5.13;4.35;;;;;;;17.72;90.62;101969.38;5035146;28;20057;-75
2023/08/10 06:51:47;;;;;;;5.78;3.83;;;;;;;17.85;91.50;101964.13;5054854;28;20051;-73
2023/08/10 06:54:12;;;;;;;5.22;4.00;;;;;;;17.98;88.22;101972.28;5048226;28;20032;-73
2023/08/10 06:56:38;;;;;;;6.80;3.72;;;;;;;18.12;88.45;101956.94;5050575;28;20021;-73
2023/08/10 06:59:03;;;;;;;6.35;3.60;;;;;;;18.33;88.24;101965.47;5032644;28;20078;-73
2023/08/10 07:01:29;;;;;;;5.88;3.30;;;;;;;18.58;86.29;101956.59;5044679;28;20055;-73
2023/08/10 07:03:54;;;;;;;3.90;3.00;;;;;;;18.67;80.18;101955.13;5044384;28;20023;-73
2023/08/10 07:06:19;;;;;;;4.15;3.47;;;;;;;18.82;77.89;101958.66;5049750;28;20458;-74
2023/08/10 07:08:45;;;;;;;5.05;3.38;;;;;;;19.21;79.79;101954.19;5051678;28;20558;-75
2023/08/10 07:11:10;;;;;;;5.57;3.47;;;;;;;19.37;78.00;101954.84;5046239;28;20033;-74
2023/08/10 07:13:36;;;;;;;5.65;2.92;;;;;;;19.73;76.50;101956.81;5046167;28;20033;-73
2023/08/10 07:16:01;;;;;;;3.80;2.65;;;;;;;20.08;77.21;101956.94;5045556;28;20118;-74
2023/08/10 07:18:27;;;;;;;5.22;3.30;;;;;;;20.45;71.41;101956.06;5038767;28;20060;-74
2023/08/10 07:20:55;;;;;;;6.38;3.25;;;;;;;20.63;69.83;101957.38;5039058;28;20266;-74
2023/08/10 07:23:21;;;;;;;3.60;2.60;;;;;;;21.06;71.23;101954.94;5046707;28;20033;-74
2023/08/10 07:25:47;;;;;;;3.90;2.22;;;;;;;21.51;66.64;101957.78;5048693;28;20012;-74
2023/08/10 07:28:13;;;;;;;2.90;2.13;;;;;;;21.77;65.85;101973.78;5049510;28;20274;-74
2023/08/10 07:30:38;;;;;;;3.45;2.03;;;;;;;21.86;57.37;101968.50;5037539;28;20295;-74
2023/08/10 07:33:04;;;;;;;2.58;1.70;;;;;;;22.07;58.23;101970.44;5044541;28;20454;-73
2023/08/10 07:35:29;;;;;;;5.10;1.90;;;;;;;22.51;55.14;101971.38;5051546;28;20032;-75
2023/08/10 07:37:55;;;;;;;2.85;1.48;;;;;;;22.80;53.72;101958.06;5045548;28;20075;-75
2023/08/10 07:40:21;;;;;;;2.85;1.58;;;;;;;23.10;53.77;101960.03;5040565;28;20379;-75
2023/08/10 07:42:46;;;;;;;3.75;1.50;;;;;;;23.47;55.57;101954.97;5051440;28;20024;-74
2023/08/10 07:45:11;;;;;;;3.28;1.42;;;;;;;23.64;49.07;101963.50;5043242;28;20025;-76
2023/08/10 07:47:37;;;;;;;3.40;1.50;;;;;;;23.95;48.90;101967.06;5048714;28;20552;-75
2023/08/10 07:50:04;;;;;;;3.92;1.60;;;;;;;24.34;49.40;101965.31;5046365;28;20597;-74
2023/08/10 07:52:29;;;;;;;5.63;1.85;;;;;;;24.54;46.71;101972.56;5037306;28;20108;-74
2023/08/10 07:54:54;;;;;;;2.95;1.73;;;;;;;24.80;44.48;101971.97;5038842;28;20801;-74
2023/08/10 07:57:20;;;;;;;2.03;1.27;;;;;;;24.99;45.64;101963.78;5039030;28;20036;-74
2023/08/10 07:59:45;;;;;;;3.38;1.40;;;;;;;25.40;43.97;101971.78;5047291;28;20031;-74
2023/08/10 08:02:11;;;;;;;3.17;1.40;;;;;;;25.80;43.88;101972.41;5042456;28;20044;-75
2023/08/10 08:04:36;;;;;;;1.98;1.20;;;;;;;26.20;41.43;101973.91;5043344;28;20372;-75
2023/08/10 08:07:02;;;;;;;1.85;1.30;;;;;;;26.59;38.80;101973.69;5057350;28;20311;-75
2023/08/10 08:09:27;;;;;;;2.70;1.60;;;;;;;26.61;37.86;101976.25;5041465;28;20036;-74
2023/08/10 08:11:53;;;;;;;2.60;1.33;;;;;;;26.88;38.82;101969.81;5042209;28;20021;-75
2023/08/10 08:14:18;;;;;;;2.78;1.27;;;;;;;27.21;38.27;101970.97;5042848;28;20026;-74
2023/08/10 08:16:43;;;;;;;1.67;1.30;;;;;;;27.52;40.88;101963.16;5042922;28;20107;-73
2023/08/10 08:19:09;;;;;;;2.67;1.02;;;;;;;27.85;38.08;101966.97;5042855;28;20479;-73
2023/08/10 08:21:35;;;;;;;2.80;1.30;;;;;;;28.07;38.83;101953.72;5046382;28;20565;-74
2023/08/10 08:24:01;;;;;;;3.03;1.65;;;;;;;28.44;37.10;101961.53;5064678;28;20544;-74
2023/08/10 08:26:27;;;;;;;3.88;1.60;;;;;;;28.27;37.90;101958.72;5043691;28;20029;-74
2023/08/10 08:28:53;;;;;;;3.55;1.50;;;;;;;28.29;36.22;101962.13;5042594;28;20032;-75
2023/08/10 08:31:18;;;;;;;1.70;1.42;;;;;;;28.57;36.60;101969.25;5066267;28;20093;-78
2023/08/10 08:33:44;;;;;;;5.13;1.65;;;;;;;28.92;34.69;101966.19;5050133;28;20032;-78
2023/08/10 08:36:09;;;;;;;1.75;1.10;;;;;;;29.22;33.44;101972.03;5046995;28;20032;-77
2023/08/10 08:38:36;;;;;;;2.45;1.10;;;;;;;29.36;33.64;101973.22;5051983;28;20054;-76
2023/08/10 08:41:06;;;;;;;3.53;1.73;;;;;;;29.73;32.97;101975.41;5039364;28;20047;-76
2023/08/10 08:43:33;;;;;;;1.48;1.27;;;;;;;30.35;32.34;101974.59;5046124;28;20341;-77
2023/08/10 08:45:59;;;;;;;3.58;1.75;;;;;;;30.64;32.08;101971.16;5048019;28;20032;-75
2023/08/10 08:48:29;;;;;;;2.80;1.48;;;;;;;30.79;33.63;101977.59;5044009;28;20036;-78
2023/08/10 08:50:56;;;;;;;3.40;1.73;;;;;;;31.13;31.33;101962.53;5047622;28;20070;-76
2023/08/10 08:53:22;;;;;;;3.70;1.55;;;;;;;31.39;32.33;101971.22;5051463;28;20127;-76
2023/08/10 08:55:47;;;;;;;2.65;1.02;;;;;;;31.75;32.44;101973.25;5037957;28;20043;-77
2023/08/10 08:58:17;;;;;;;2.13;1.10;;;;;;;31.82;29.17;101974.19;5037127;28;20021;-76
2023/08/10 09:00:52;;;;;;;2.47;1.30;;;;;;;31.78;30.94;101980.28;5041765;28;20111;-76
2023/08/10 09:03:18;;;;;;;2.60;1.40;;;;;;;31.90;29.46;101976.88;5044009;28;20048;-76
2023/08/10 09:05:45;;;;;;;3.63;1.75;;;;;;;32.02;30.26;101971.72;5045298;28;20020;-77
2023/08/10 09:08:13;;;;;;;3.17;1.30;;;;;;;32.34;30.77;101964.91;5047742;28;20117;-78
2023/08/10 09:10:39;;;;;;;2.65;1.48;;;;;;;32.58;28.21;101966.47;5053094;28;20049;-75
2023/08/10 09:13:15;;;;;;;1.98;1.15;;;;;;;33.09;29.48;101954.44;5043082;28;20029;-75
2023/08/10 09:15:41;;;;;;;2.92;1.30;;;;;;;33.21;28.06;101950.09;5042813;28;20546;-76
2023/08/10 09:18:06;;;;;;;1.88;1.27;;;;;;;33.09;28.04;101949.78;5051918;28;20033;-77
2023/08/10 09:20:32;;;;;;;2.40;1.30;;;;;;;33.14;29.06;101949.19;5061455;28;20036;-76
2023/08/10 09:22:58;;;;;;;2.50;1.40;;;;;;;33.00;28.35;101950.97;5047760;28;20021;-76
2023/08/10 09:25:24;;;;;;;3.17;1.40;;;;;;;33.37;28.67;101958.06;5066244;28;20261;-76
2023/08/10 09:27:51;;;;;;;1.80;1.13;;;;;;;33.40;27.95;101951.25;5048827;28;20332;-76
2023/08/10 09:30:18;;;;;;;2.30;1.10;;;;;;;34.01;28.30;101958.88;5050103;28;20061;-76
2023/08/10 09:32:44;;;;;;;3.33;1.30;;;;;;;34.36;26.25;101962.38;5047836;28;20900;-76
2023/08/10 09:35:17;;;;;;;2.45;1.27;;;;;;;34.83;27.77;101960.59;5057792;28;20035;-75
2023/08/10 09:37:44;;;;;;;1.65;1.10;;;;;;;35.43;26.29;101947.59;5046765;28;20028;-77
2023/08/10 09:40:11;;;;;;;2.55;1.50;;;;;;;35.77;25.02;101953.91;5048246;28;20025;-75
2023/08/10 09:42:38;;;;;;;4.35;1.50;;;;;;;36.21;24.76;101957.81;5044450;28;20025;-78
2023/08/10 09:45:11;;;;;;;1.70;1.30;;;;;;;35.40;26.28;101956.31;5059517;28;20021;-75
2023/08/10 09:47:41;;;;;;;2.42;1.30;;;;;;;33.81;27.19;101958.75;5045082;28;20020;-76
2023/08/10 09:50:09;;;;;;;2.80;1.40;;;;;;;33.11;28.60;101953.22;5045170;28;20064;-75
2023/08/10 09:52:36;;;;;;;2.20;1.38;;;;;;;32.64;28.38;101953.78;5059155;28;20478;-75
2023/08/10 09:55:02;;;;;;;5.47;1.80;;;;;;;32.56;29.56;101951.16;5030454;28;20049;-75
2023/08/10 09:57:28;;;;;;;2.20;1.40;;;;;;;32.61;29.15;101946.78;5049472;28;20282;-74
2023/08/10 09:59:54;;;;;;;3.58;1.40;;;;;;;32.30;29.55;101944.28;5053648;28;20492;-75
2023/08/10 10:02:20;;;;;;;2.75;1.70;;;;;;;32.57;31.20;101939.97;5048121;28;20036;-74
2023/08/10 10:04:47;;;;;;;2.00;1.42;;;;;;;32.39;31.03;101948.66;5049256;28;20043;-73
2023/08/10 10:07:22;;;;;;;2.22;1.40;;;;;;;31.94;32.29;101955.31;5056381;28;20035;-73
2023/08/10 10:09:49;;;;;;;3.10;1.70;;;;;;;31.31;32.50;101953.94;5046687;28;20044;-73
2023/08/10 10:12:15;;;;;;;3.88;1.50;;;;;;;31.15;32.75;101950.31;5039068;28;20318;-73
2023/08/10 10:14:47;;;;;;;3.47;1.88;;;;;;;30.44;33.35;101959.81;5042325;28;20024;-74
2023/08/10 10:17:16;;;;;;;3.35;1.58;;;;;;;30.19;33.42;101946.22;5056921;28;20017;-74
2023/08/10 10:19:43;;;;;;;3.75;1.42;;;;;;;30.15;33.75;101952.25;5062670;28;20590;-75
2023/08/10 10:22:10;;;;;;;3.13;1.73;;;;;;;29.78;33.98;101956.50;5042314;28;20048;-74
2023/08/10 10:24:40;;;;;;;3.90;1.90;;;;;;;29.51;35.95;101957.75;5046609;28;20064;-73
2023/08/10 10:27:11;;;;;;;1.73;1.30;;;;;;;29.72;34.53;101962.69;5041427;28;20068;-74
2023/08/10 10:29:42;;;;;;;4.85;1.88;;;;;;;30.25;33.76;101972.09;5043918;28;20060;-74
2023/08/10 10:32:08;;;;;;;2.53;1.30;;;;;;;31.08;33.20;101957.59;5036798;28;20258;-74
2023/08/10 10:34:33;;;;;;;2.80;1.50;;;;;;;31.56;33.05;101952.66;5042791;28;20621;-74
2023/08/10 10:37:18;;;;;;;2.22;1.70;;;;;;;32.13;33.75;101954.69;5041114;28;20033;-74
2023/08/10 10:39:51;;;;;;;1.92;1.55;;;;;;;32.97;31.57;101945.84;5039487;28;20029;-75
2023/08/10 10:42:18;;;;;;;2.90;1.88;;;;;;;33.11;30.04;101936.66;5039044;28;20061;-73
2023/08/10 10:45:08;;;;;;;2.67;1.48;;;;;;;33.07;30.71;101945.53;5042815;28;20090;-74
2023/08/10 10:47:38;;;;;;;3.88;1.60;;;;;;;32.51;31.07;101948.16;5043414;28;20029;-73
2023/08/10 10:50:23;;;;;;;3.05;1.60;;;;;;;32.72;31.65;101951.75;5048498;28;20265;-73
2023/08/10 10:52:54;;;;;;;2.35;1.63;;;;;;;32.10;32.34;101954.22;5043652;28;20083;-73
2023/08/10 10:55:26;;;;;;;4.63;1.60;;;;;;;31.33;30.98;101949.13;5055025;28;20434;-74
2023/08/10 10:57:53;;;;;;;2.28;1.60;;;;;;;30.84;31.75;101944.91;5041403;28;20039;-74
2023/08/10 11:00:20;;;;;;;2.40;1.58;;;;;;;30.47;32.90;101945.69;5040450;28;20119;-74
2023/08/10 11:02:47;;;;;;;12.40;2.63;;;;;;;29.99;33.43;101931.19;5042036;28;20025;-74
2023/08/10 11:05:14;;;;;;;5.35;1.70;;;;;;;29.66;34.51;101942.31;5044385;28;20056;-73
2023/08/10 11:07:40;;;;;;;4.03;1.58;;;;;;;29.76;35.62;101940.22;5038172;28;20036;-74
2023/08/10 11:10:06;;;;;;;1.73;1.60;;;;;;;31.25;34.80;101930.78;5048211;28;20021;-73
2023/08/10 11:12:32;;;;;;;3.22;2.00;;;;;;;33.30;29.23;101940.59;5037017;28;20226;-73
2023/08/10 11:14:58;;;;;;;4.13;1.63;;;;;;;35.64;25.92;101929.88;5051040;28;20037;-73
2023/08/10 11:17:27;;;;;;;3.28;1.67;;;;;;;37.08;24.50;101932.03;5039910;28;20033;-74
2023/08/10 11:19:52;;;;;;;3.65;1.67;;;;;;;39.27;23.63;101931.00;5038673;28;20020;-73